Novato, CA

9:28 AM PDT on March 31, 2015 (GMT -0700)
Buchanan | | Change Station
CLOSE
Current Station
Airport
Location: Concord,
Elevation: 23 ft
Nearby Weather Stations

Elev 23 ft 37.99 °N, 122.06 °W | Updated 35 minutes ago

Clear
Clear
60 °F
Feels Like 60 °F
N
12
Wind Variable Wind from West

Today
High -- | Low -- °F
--% Chance of Precip.
Yesterday
High -- | Low -- °F
Precip. -- in
6:57 AM 7:32 PM
Waxing Gibbous, 87% visible
Pressure 30.10 in
Visibility 10.0 miles
Clouds Scattered Clouds 2600 ft
Dew Point 49 °F
Humidity 67%
Rainfall 0.00 in
Snow Depth Not available.
UV 1 out of 12
Pollen 9.00 out of 12
Air Quality Not available.
Flu Activity Not available.
METAR KCCR 311553Z 28010KT 10SM SCT026 16/09 A3014 RMK AO2 SLP193 T01560094

More Conditions Fewer Conditions

Pressure 30.10 in
Visibility 10.0 miles
Clouds Scattered Clouds 2600 ft
Dew Point 49 °F
Humidity 67%
Rainfall 0.00 in
Snow Depth Not available.
UV 1 out of 12
Pollen 9.00 out of 12
Air Quality Not available.
Flu Activity Not available.
METAR KCCR 311553Z 28010KT 10SM SCT026 16/09 A3014 RMK AO2 SLP193 T01560094

More Conditions Fewer Conditions

10-Day Weather Forecast

Almanac

Astronomy

Mar. 31, 2015 Rise Set
Actual Time
Civil Twilight
Nautical Twilight
Astronomical Twilight
Moon
Length of Visible Light
Length of Day
Tomorrow will be .
, % of the Moon is Illuminated

Today's Extremes

State Highs State Lows

Community

WunderPhotos

Upload Photos

1,809,787 photos uploaded!

WunderBlogs® & News

Nearby

Air Quality

  Air Quality AQ Index Pollutant
Not available.

Snow Depth

Station Depth Elevation

Earthquake Activity

City Distance Mag. Time & Date
Minimum magnitude displayed is 2.5.

Coastal Water Temperatures

Place Temperature

Stations

Nearby Weather Stations

Station Location Temp. Windchill Dew Point Humidity Wind Precip. Elev Updated Type